Time;durP1;ratioP1;P1;durP2;ratioP2;P2;SDS_P1;SDS_P2;PMS_P1;PMS_P2;Temp;Humidity;BMP_temperature;BMP_pressure;BME280_temperature;BME280_humidity;BME280_pressure;Samples;Min_cycle;Max_cycle;Signal;HPM_P1;HPM_P2
2023/06/22 00:01:51;;;;;;;6.57;3.53;;;21.80;98.70;;;;;;5091549;28;20020;-49
2023/06/22 00:04:16;;;;;;;8.60;3.38;;;21.70;98.80;;;;;;5091570;28;20392;-52
2023/06/22 00:06:42;;;;;;;5.53;2.97;;;21.70;99.10;;;;;;5091437;28;20023;-54
2023/06/22 00:09:08;;;;;;;6.80;3.03;;;21.70;99.20;;;;;;5091442;28;20024;-54
2023/06/22 00:11:33;;;;;;;8.32;3.50;;;21.70;99.30;;;;;;5091353;28;20024;-53
2023/06/22 00:14:00;;;;;;;5.82;3.03;;;21.70;99.50;;;;;;5073463;28;20435;-52
2023/06/22 00:16:25;;;;;;;8.25;3.20;;;21.70;99.60;;;;;;5091572;28;20388;-54
2023/06/22 00:18:51;;;;;;;4.70;2.85;;;21.60;99.70;;;;;;5091386;28;20111;-51
2023/06/22 00:21:16;;;;;;;4.82;2.88;;;21.60;99.90;;;;;;5091033;28;20063;-53
2023/06/22 00:23:43;;;;;;;5.72;3.00;;;21.60;99.90;;;;;;5091093;28;20032;-50
2023/06/22 00:26:08;;;;;;;7.32;3.40;;;21.60;99.90;;;;;;5091239;28;20134;-50
2023/06/22 00:28:34;;;;;;;5.07;2.60;;;21.60;99.90;;;;;;5090812;28;20554;-52
2023/06/22 00:31:01;;;;;;;4.68;2.58;;;21.60;99.90;;;;;;5072849;28;20055;-53
2023/06/22 00:33:28;;;;;;;5.30;3.03;;;21.50;99.90;;;;;;5091254;28;20063;-54
2023/06/22 00:35:53;;;;;;;5.78;2.60;;;21.50;99.90;;;;;;5090864;28;20031;-52
2023/06/22 00:38:19;;;;;;;5.82;3.20;;;21.50;99.90;;;;;;5072856;28;20503;-51
2023/06/22 00:40:45;;;;;;;6.88;3.20;;;21.40;99.90;;;;;;5072470;28;20036;-50
2023/06/22 00:43:11;;;;;;;4.43;2.80;;;21.40;99.90;;;;;;5090602;28;20031;-54
2023/06/22 00:45:36;;;;;;;4.05;2.58;;;21.40;99.90;;;;;;5072703;28;20028;-52
2023/06/22 00:48:03;;;;;;;5.47;3.30;;;21.40;99.90;;;;;;5072584;28;20523;-53
2023/06/22 00:50:33;;;;;;;5.22;3.20;;;21.40;99.90;;;;;;5072423;28;20112;-54
2023/06/22 00:53:07;;;;;;;6.00;3.13;;;21.40;99.90;;;;;;5072563;28;20489;-53
2023/06/22 00:55:38;;;;;;;5.57;3.30;;;21.30;99.90;;;;;;5090642;28;20036;-52
2023/06/22 00:58:10;;;;;;;5.78;3.33;;;21.30;99.90;;;;;;5072389;28;20392;-52
2023/06/22 01:00:37;;;;;;;6.82;3.78;;;21.20;99.90;;;;;;5072370;28;20043;-51
2023/06/22 01:03:03;;;;;;;5.30;3.17;;;21.10;99.90;;;;;;5055929;28;20032;-53
2023/06/22 01:05:31;;;;;;;5.50;3.47;;;21.20;99.90;;;;;;5072364;28;20035;-51
2023/06/22 01:08:08;;;;;;;6.10;3.83;;;21.20;99.90;;;;;;5090827;28;20389;-51
2023/06/22 01:11:01;;;;;;;7.30;3.42;;;21.10;99.90;;;;;;5076333;28;20111;-52
2023/06/22 01:14:01;;;;;;;5.57;3.40;;;21.10;99.90;;;;;;5095019;28;20154;-49
2023/06/22 01:16:33;;;;;;;5.68;3.58;;;21.10;99.90;;;;;;5062940;28;20040;-51
2023/06/22 01:19:09;;;;;;;5.78;3.10;;;21.10;99.90;;;;;;5094506;28;20027;-49
2023/06/22 01:21:35;;;;;;;5.78;3.38;;;21.00;99.90;;;;;;5076229;28;20456;-52
2023/06/22 01:24:47;;;;;;;5.10;2.80;;;21.00;99.90;;;;;;5076198;28;20064;-52
2023/06/22 01:27:31;;;;;;;7.15;3.38;;;21.00;99.90;;;;;;5075259;28;20085;-52
2023/06/22 01:30:00;;;;;;;11.98;3.30;;;21.00;99.90;;;;;;5094335;28;20028;-54
2023/06/22 01:32:32;;;;;;;5.95;3.08;;;20.90;99.90;;;;;;5076155;28;20226;-52
2023/06/22 01:35:01;;;;;;;7.38;3.63;;;20.90;99.90;;;;;;5076010;28;20028;-49
2023/06/22 01:37:28;;;;;;;4.82;2.83;;;20.90;99.90;;;;;;5075891;28;20036;-51
2023/06/22 01:39:55;;;;;;;6.13;3.10;;;20.80;99.90;;;;;;5076287;28;20039;-53
2023/06/22 01:42:24;;;;;;;5.68;3.50;;;20.80;99.90;;;;;;5093979;28;20032;-51
2023/06/22 01:44:51;;;;;;;5.23;3.37;;;20.80;99.90;;;;;;5094255;28;20443;-51
2023/06/22 01:47:18;;;;;;;5.07;3.35;;;20.70;99.90;;;;;;5094229;28;20536;-54
2023/06/22 01:49:43;;;;;;;6.45;3.65;;;20.60;99.90;;;;;;5093740;28;20028;-53
2023/06/22 01:52:09;;;;;;;6.13;3.75;;;20.70;99.90;;;;;;5093657;28;20059;-53
2023/06/22 01:54:35;;;;;;;5.60;3.47;;;20.70;99.90;;;;;;5075699;28;20064;-49
2023/06/22 01:57:00;;;;;;;6.13;3.50;;;20.60;99.90;;;;;;5075828;28;20303;-54
2023/06/22 01:59:36;;;;;;;6.30;3.38;;;20.60;99.90;;;;;;5075428;28;20044;-54
2023/06/22 02:02:07;;;;;;;7.50;3.67;;;20.60;99.90;;;;;;5075344;28;20028;-52
2023/06/22 02:04:42;;;;;;;8.43;4.55;;;20.60;99.90;;;;;;5075262;28;20054;-51
2023/06/22 02:07:12;;;;;;;6.72;4.50;;;20.60;99.90;;;;;;5075629;28;20545;-52
2023/06/22 02:09:42;;;;;;;9.25;4.32;;;20.70;99.90;;;;;;5075419;28;20024;-51
2023/06/22 02:12:10;;;;;;;5.57;3.67;;;20.70;99.90;;;;;;5075262;28;20134;-47
2023/06/22 02:14:36;;;;;;;5.60;4.13;;;20.70;99.90;;;;;;5075185;28;20480;-50
2023/06/22 02:17:04;;;;;;;10.10;5.03;;;20.70;99.90;;;;;;5075439;28;20028;-54
2023/06/22 02:19:33;;;;;;;8.43;4.70;;;20.70;99.90;;;;;;5093637;28;20472;-50
2023/06/22 02:21:58;;;;;;;6.63;4.30;;;20.70;99.90;;;;;;5093155;28;20054;-54
2023/06/22 02:24:24;;;;;;;7.68;4.45;;;20.70;99.90;;;;;;5058511;28;20040;-50
2023/06/22 02:26:50;;;;;;;8.15;5.25;;;20.70;99.90;;;;;;5074996;28;20085;-51
2023/06/22 02:29:15;;;;;;;6.40;3.70;;;20.60;99.90;;;;;;5093233;28;20503;-49
2023/06/22 02:31:42;;;;;;;7.45;4.32;;;20.70;99.90;;;;;;5074784;28;20051;-50
2023/06/22 02:34:07;;;;;;;7.53;3.83;;;20.60;99.90;;;;;;5075008;28;20063;-48
2023/06/22 02:36:33;;;;;;;6.50;3.92;;;20.60;99.90;;;;;;5075275;28;20412;-50
2023/06/22 02:39:01;;;;;;;8.30;4.20;;;20.60;99.90;;;;;;5074794;28;20027;-50
2023/06/22 02:41:27;;;;;;;6.95;4.25;;;20.60;99.90;;;;;;5074644;28;20020;-49
2023/06/22 02:43:55;;;;;;;;;;;20.50;99.90;;;;;;5076000;28;20024;-53
2023/06/22 02:46:21;;;;;;;8.25;5.07;;;20.50;99.90;;;;;;5093289;28;20016;-50
2023/06/22 02:48:47;;;;;;;7.75;4.10;;;20.40;99.90;;;;;;5075702;28;20034;-52
2023/06/22 02:51:14;;;;;;;9.07;4.55;;;20.40;99.90;;;;;;5093184;28;20111;-49
2023/06/22 02:53:44;;;;;;;8.07;4.93;;;20.40;99.90;;;;;;5094383;28;20024;-50
2023/06/22 02:56:10;;;;;;;7.93;4.50;;;20.40;99.90;;;;;;5076987;28;20036;-51
2023/06/22 02:58:38;;;;;;;9.35;4.97;;;20.40;99.90;;;;;;5059883;28;20035;-53
2023/06/22 03:01:07;;;;;;;8.80;4.70;;;20.40;99.90;;;;;;5076625;28;20031;-51
2023/06/22 03:03:34;;;;;;;7.57;4.10;;;20.40;99.90;;;;;;5075158;28;20408;-54
2023/06/22 03:06:00;;;;;;;6.15;4.38;;;20.40;99.90;;;;;;5092527;28;20028;-50
2023/06/22 03:08:27;;;;;;;8.98;4.43;;;20.40;99.90;;;;;;5074224;28;20556;-53
2023/06/22 03:10:53;;;;;;;7.85;5.30;;;20.40;99.90;;;;;;5074023;28;20024;-54
2023/06/22 03:13:19;;;;;;;7.60;4.82;;;20.30;99.90;;;;;;5074272;28;20106;-54
2023/06/22 03:15:45;;;;;;;9.10;4.78;;;20.30;99.90;;;;;;5074108;28;20036;-54
2023/06/22 03:18:11;;;;;;;8.18;4.78;;;20.30;99.90;;;;;;5074041;28;20032;-53
2023/06/22 03:20:37;;;;;;;7.97;4.63;;;20.30;99.90;;;;;;5092464;28;20020;-52
2023/06/22 03:23:02;;;;;;;8.30;4.53;;;20.20;99.90;;;;;;5073989;28;20140;-50
2023/06/22 03:25:28;;;;;;;7.93;4.75;;;20.20;99.90;;;;;;5074095;28;20028;-51
2023/06/22 03:27:54;;;;;;;7.00;4.28;;;20.20;99.90;;;;;;5073976;28;20025;-52
2023/06/22 03:30:22;;;;;;;6.93;4.72;;;20.20;99.90;;;;;;5074030;28;20023;-53
2023/06/22 03:32:47;;;;;;;9.20;5.97;;;20.20;99.90;;;;;;5073602;28;20028;-54
2023/06/22 03:35:13;;;;;;;10.98;5.25;;;20.20;99.90;;;;;;5092485;28;20032;-54
2023/06/22 03:37:39;;;;;;;8.73;4.95;;;20.20;99.90;;;;;;5073945;28;20484;-54
2023/06/22 03:40:06;;;;;;;8.05;5.15;;;20.20;99.90;;;;;;5073830;28;20086;-53
2023/06/22 03:42:35;;;;;;;9.30;5.20;;;20.20;99.90;;;;;;5073704;28;20032;-53
2023/06/22 03:45:03;;;;;;;10.48;5.30;;;20.20;99.90;;;;;;5073633;28;20089;-54
2023/06/22 03:47:29;;;;;;;8.40;5.00;;;20.20;99.90;;;;;;5073513;28;20114;-54
2023/06/22 03:49:56;;;;;;;9.13;5.55;;;20.20;99.90;;;;;;5073587;28;20028;-53
2023/06/22 03:52:22;;;;;;;8.40;5.20;;;20.20;99.90;;;;;;5091545;28;20035;-54
2023/06/22 03:54:48;;;;;;;8.50;5.68;;;20.10;99.90;;;;;;5091605;28;20390;-53
2023/06/22 03:57:14;;;;;;;9.98;5.47;;;20.20;99.90;;;;;;5091559;28;20488;-50
2023/06/22 03:59:39;;;;;;;10.23;5.70;;;20.20;99.90;;;;;;5091359;28;20032;-53
2023/06/22 04:02:05;;;;;;;9.23;5.70;;;20.20;99.90;;;;;;5091394;28;20040;-54
2023/06/22 04:04:30;;;;;;;9.02;5.60;;;20.20;99.90;;;;;;5091364;28;20039;-53
2023/06/22 04:06:56;;;;;;;8.20;5.32;;;20.20;99.90;;;;;;5091419;28;20035;-54
2023/06/22 04:09:22;;;;;;;7.88;5.25;;;20.30;99.90;;;;;;5091214;28;20070;-53
2023/06/22 04:11:47;;;;;;;8.45;5.82;;;20.30;99.90;;;;;;5090990;28;20036;-49
2023/06/22 04:14:13;;;;;;;9.23;5.68;;;20.30;99.90;;;;;;5091278;28;20085;-52
2023/06/22 04:16:39;;;;;;;11.38;5.82;;;20.30;99.90;;;;;;5091246;28;20027;-52
2023/06/22 04:19:04;;;;;;;14.80;7.50;;;20.30;99.90;;;;;;5072861;28;20435;-54
2023/06/22 04:21:30;;;;;;;11.18;6.43;;;20.40;99.90;;;;;;5091066;28;20024;-54
2023/06/22 04:23:55;;;;;;;11.75;6.72;;;20.40;99.90;;;;;;5091039;28;20032;-53
2023/06/22 04:26:21;;;;;;;10.00;5.95;;;20.40;99.90;;;;;;5090886;28;20065;-52
2023/06/22 04:28:51;;;;;;;10.35;6.55;;;20.40;99.90;;;;;;5091009;28;20040;-54
2023/06/22 04:31:19;;;;;;;10.07;6.55;;;20.40;99.90;;;;;;5090660;28;20071;-54
2023/06/22 04:33:45;;;;;;;10.45;6.30;;;20.50;99.90;;;;;;5090974;28;20097;-50
2023/06/22 04:36:13;;;;;;;10.73;6.72;;;20.50;99.90;;;;;;5072825;28;20055;-52
2023/06/22 04:38:39;;;;;;;10.35;6.63;;;20.50;99.90;;;;;;5090826;28;20043;-53
2023/06/22 04:41:06;;;;;;;10.13;6.20;;;20.50;99.90;;;;;;5090579;28;20068;-52
2023/06/22 04:43:33;;;;;;;9.85;5.68;;;20.40;99.90;;;;;;5089978;28;20476;-54
2023/06/22 04:46:03;;;;;;;10.98;6.72;;;20.50;99.90;;;;;;5090741;28;20028;-54
2023/06/22 04:48:32;;;;;;;9.60;6.43;;;20.50;99.90;;;;;;5090670;28;20031;-51
2023/06/22 04:51:04;;;;;;;11.93;7.13;;;20.50;99.90;;;;;;5090485;28;20064;-52
2023/06/22 04:53:31;;;;;;;11.60;6.55;;;20.50;99.90;;;;;;5090627;28;20032;-53
2023/06/22 04:55:56;;;;;;;8.93;5.68;;;20.50;99.90;;;;;;5090795;28;20058;-54
2023/06/22 04:58:22;;;;;;;11.63;6.28;;;20.50;99.90;;;;;;5090843;28;20350;-52
2023/06/22 05:00:48;;;;;;;12.73;7.03;;;20.50;99.90;;;;;;5090677;28;20024;-51
2023/06/22 05:03:13;;;;;;;10.75;6.97;;;20.50;99.90;;;;;;5090625;28;20315;-53
2023/06/22 05:05:39;;;;;;;10.40;6.80;;;20.50;99.90;;;;;;5090547;28;20028;-53
2023/06/22 05:08:06;;;;;;;12.80;6.60;;;20.50;99.90;;;;;;5090343;28;20089;-49
2023/06/22 05:10:33;;;;;;;10.13;6.70;;;20.50;99.90;;;;;;5090527;28;20510;-54
2023/06/22 05:12:58;;;;;;;10.02;5.75;;;20.50;99.90;;;;;;5090484;28;20036;-52
2023/06/22 05:15:27;;;;;;;13.35;6.93;;;20.60;99.90;;;;;;5072415;28;20077;-52
2023/06/22 05:17:53;;;;;;;12.85;6.93;;;20.60;99.90;;;;;;5090464;28;20036;-54
2023/06/22 05:20:19;;;;;;;12.05;7.38;;;20.60;99.90;;;;;;5090399;28;20038;-53
2023/06/22 05:22:45;;;;;;;10.98;7.22;;;20.60;99.90;;;;;;5090327;28;20079;-54
2023/06/22 05:25:11;;;;;;;11.38;6.68;;;20.60;99.90;;;;;;5090365;28;20063;-54
2023/06/22 05:27:40;;;;;;;10.30;6.72;;;20.60;99.90;;;;;;5090247;28;20038;-54
2023/06/22 05:30:07;;;;;;;11.52;7.32;;;20.60;99.90;;;;;;5090167;28;20089;-53
2023/06/22 05:32:33;;;;;;;10.50;6.63;;;20.60;99.90;;;;;;5090440;28;20040;-53
2023/06/22 05:34:59;;;;;;;11.82;7.70;;;20.60;99.90;;;;;;5090245;28;20055;-54
2023/06/22 05:37:25;;;;;;;11.90;7.35;;;20.70;99.90;;;;;;5090205;28;20042;-52
2023/06/22 05:39:51;;;;;;;11.30;7.90;;;20.70;99.90;;;;;;5072286;28;20074;-53
2023/06/22 05:42:17;;;;;;;11.77;7.35;;;20.70;99.90;;;;;;5090069;28;20361;-51
2023/06/22 05:44:42;;;;;;;11.63;7.18;;;20.60;99.90;;;;;;5090049;28;20536;-53
2023/06/22 05:47:08;;;;;;;12.90;7.07;;;20.60;99.90;;;;;;5090310;28;20379;-53
2023/06/22 05:49:34;;;;;;;10.40;6.55;;;20.60;99.90;;;;;;5090108;28;20021;-54
2023/06/22 05:52:00;;;;;;;15.85;7.47;;;20.60;99.90;;;;;;5089861;28;20396;-51
2023/06/22 05:54:27;;;;;;;11.13;6.78;;;20.60;99.90;;;;;;5091289;28;20024;-52
2023/06/22 05:56:53;;;;;;;10.25;6.55;;;20.60;99.90;;;;;;5093784;28;20024;-53
2023/06/22 05:59:18;;;;;;;10.43;6.88;;;20.60;99.90;;;;;;5093666;28;20409;-55
2023/06/22 06:01:44;;;;;;;14.27;7.75;;;20.50;99.90;;;;;;5093502;28;20032;-53
2023/06/22 06:04:10;;;;;;;13.55;7.57;;;20.50;99.90;;;;;;5094125;28;20024;-49
2023/06/22 06:06:36;;;;;;;14.23;7.82;;;20.50;99.90;;;;;;5093722;28;20020;-54
2023/06/22 06:09:07;;;;;;;13.50;8.05;;;20.40;99.90;;;;;;5093643;28;20098;-55
2023/06/22 06:11:33;;;;;;;13.00;7.97;;;20.40;99.90;;;;;;5093504;28;20044;-53
2023/06/22 06:13:59;;;;;;;15.25;8.25;;;20.30;99.90;;;;;;5075400;28;20101;-51
2023/06/22 06:16:24;;;;;;;15.18;8.23;;;20.20;99.90;;;;;;5093863;28;20469;-54
2023/06/22 06:18:50;;;;;;;15.07;9.60;;;20.20;99.90;;;;;;5075222;28;20062;-54
2023/06/22 06:21:16;;;;;;;13.45;8.32;;;20.10;99.90;;;;;;5093141;28;20024;-53
2023/06/22 06:23:42;;;;;;;15.05;9.32;;;19.90;99.90;;;;;;5093378;28;20067;-53
2023/06/22 06:26:08;;;;;;;16.90;9.88;;;19.80;99.90;;;;;;5093399;28;20060;-54
2023/06/22 06:28:34;;;;;;;15.40;9.93;;;19.70;99.90;;;;;;5093120;28;20054;-53
2023/06/22 06:31:00;;;;;;;15.00;9.35;;;19.70;99.90;;;;;;5075037;28;20493;-53
2023/06/22 06:33:26;;;;;;;19.10;10.02;;;19.60;99.90;;;;;;5093875;28;20040;-54
2023/06/22 06:35:52;;;;;;;16.90;10.65;;;19.60;99.90;;;;;;5093389;28;20081;-51
2023/06/22 06:38:17;;;;;;;14.68;9.70;;;19.50;99.90;;;;;;5093289;28;20054;-55
2023/06/22 06:40:44;;;;;;;18.17;10.18;;;19.40;99.90;;;;;;5093041;28;20476;-51
2023/06/22 06:43:10;;;;;;;14.43;9.65;;;19.40;99.90;;;;;;5093023;28;20040;-54
2023/06/22 06:45:36;;;;;;;13.70;9.15;;;19.40;99.90;;;;;;5093121;28;20118;-50
2023/06/22 06:48:01;;;;;;;18.45;9.93;;;19.40;99.90;;;;;;5093328;28;20028;-52
2023/06/22 06:50:28;;;;;;;18.70;10.43;;;19.40;99.90;;;;;;5092795;28;20472;-54
2023/06/22 06:52:53;;;;;;;16.23;9.90;;;19.50;99.90;;;;;;5092890;28;20098;-53
2023/06/22 06:55:20;;;;;;;17.42;10.23;;;19.60;99.90;;;;;;5092786;28;20511;-53
2023/06/22 06:57:48;;;;;;;19.15;10.60;;;19.60;99.90;;;;;;5092598;28;20405;-54
2023/06/22 07:00:15;;;;;;;16.10;10.57;;;19.70;99.90;;;;;;5092547;28;20028;-53
2023/06/22 07:02:42;;;;;;;19.25;11.05;;;19.70;99.90;;;;;;5092372;28;20032;-53
2023/06/22 07:05:08;;;;;;;20.33;11.98;;;19.80;99.90;;;;;;5092377;28;20024;-54
2023/06/22 07:07:34;;;;;;;18.35;11.85;;;19.90;99.90;;;;;;5073463;28;20063;-54
2023/06/22 07:10:00;;;;;;;18.92;11.93;;;19.90;99.90;;;;;;5092290;28;20027;-53
2023/06/22 07:12:26;;;;;;;18.52;12.50;;;19.90;99.90;;;;;;5092125;28;20028;-54
2023/06/22 07:14:52;;;;;;;18.77;11.82;;;19.90;99.90;;;;;;5092434;28;20036;-53
2023/06/22 07:17:18;;;;;;;21.55;13.07;;;19.90;99.90;;;;;;5092107;28;20385;-52
2023/06/22 07:19:44;;;;;;;18.50;11.65;;;19.90;99.90;;;;;;5092271;28;20084;-51
2023/06/22 07:22:09;;;;;;;15.88;10.70;;;20.00;99.90;;;;;;5091928;28;20035;-53
2023/06/22 07:24:35;;;;;;;19.98;11.82;;;20.00;99.90;;;;;;5074042;28;20376;-53
2023/06/22 07:27:02;;;;;;;18.73;11.93;;;20.00;99.90;;;;;;5092014;28;20035;-53
2023/06/22 07:29:27;;;;;;;18.48;12.45;;;20.00;99.90;;;;;;5091868;28;20028;-51
2023/06/22 07:31:56;;;;;;;18.85;11.27;;;20.00;99.90;;;;;;5091727;28;20042;-50
2023/06/22 07:34:22;;;;;;;16.67;11.43;;;20.10;99.90;;;;;;5091918;28;20549;-50
2023/06/22 07:36:47;;;;;;;17.77;10.98;;;20.20;99.90;;;;;;5073898;28;20060;-50
2023/06/22 07:39:14;;;;;;;18.27;11.65;;;20.20;99.90;;;;;;5092622;28;20028;-51
2023/06/22 07:41:42;;;;;;;19.05;12.10;;;20.20;99.90;;;;;;5091685;28;20093;-51
2023/06/22 07:44:08;;;;;;;17.42;12.07;;;20.30;99.90;;;;;;5092356;28;20032;-51
2023/06/22 07:46:34;;;;;;;18.60;11.50;;;20.20;99.90;;;;;;5092676;28;20024;-49
2023/06/22 07:49:01;;;;;;;19.80;12.07;;;20.20;99.90;;;;;;5092912;28;20473;-49
2023/06/22 07:51:26;;;;;;;19.45;12.13;;;20.20;99.90;;;;;;5093454;28;20028;-50
2023/06/22 07:53:52;;;;;;;19.33;12.02;;;20.20;99.90;;;;;;5093217;28;20085;-53
2023/06/22 07:56:21;;;;;;;20.92;11.73;;;20.20;99.90;;;;;;5092688;28;20036;-50
2023/06/22 07:58:47;;;;;;;16.38;10.68;;;20.10;99.90;;;;;;5092130;28;20499;-53
2023/06/22 08:01:16;;;;;;;19.63;11.68;;;20.10;99.90;;;;;;5091436;28;20028;-52
2023/06/22 08:03:43;;;;;;;19.23;12.00;;;20.10;99.90;;;;;;5091382;28;20039;-55
2023/06/22 08:06:09;;;;;;;17.75;11.88;;;20.10;99.90;;;;;;5091345;28;20477;-55
2023/06/22 08:08:38;;;;;;;19.02;11.50;;;20.20;99.90;;;;;;5073071;28;20024;-53
2023/06/22 08:11:04;;;;;;;19.45;12.32;;;20.20;99.90;;;;;;5091014;28;20115;-54
2023/06/22 08:13:29;;;;;;;18.80;11.73;;;20.20;99.90;;;;;;5091138;28;20119;-55
2023/06/22 08:15:55;;;;;;;19.60;12.48;;;20.20;99.90;;;;;;5091322;28;20100;-54
2023/06/22 08:18:21;;;;;;;20.25;12.23;;;20.30;99.90;;;;;;5073210;28;20142;-54
2023/06/22 08:20:46;;;;;;;19.23;12.93;;;20.30;99.90;;;;;;5090976;28;20059;-53
2023/06/22 08:23:12;;;;;;;21.80;13.50;;;20.30;99.90;;;;;;5091020;28;20028;-50
2023/06/22 08:25:37;;;;;;;20.23;12.93;;;20.50;99.90;;;;;;5090765;28;20031;-52
2023/06/22 08:28:04;;;;;;;18.95;11.88;;;20.50;99.90;;;;;;5090611;28;20097;-53
2023/06/22 08:30:29;;;;;;;21.20;13.90;;;20.60;99.90;;;;;;5090876;28;20039;-53
2023/06/22 08:32:55;;;;;;;19.92;12.73;;;20.60;99.90;;;;;;5090866;28;20024;-52
2023/06/22 08:35:23;;;;;;;20.77;13.35;;;20.60;99.90;;;;;;5091024;28;20054;-50
2023/06/22 08:37:52;;;;;;;19.38;12.95;;;20.70;99.90;;;;;;5090791;28;20028;-55
2023/06/22 08:40:19;;;;;;;17.50;10.95;;;20.70;99.90;;;;;;5090457;28;20060;-52
2023/06/22 08:42:46;;;;;;;18.30;11.85;;;20.80;99.90;;;;;;5090536;28;20043;-51
2023/06/22 08:45:12;;;;;;;17.85;11.85;;;20.90;99.90;;;;;;5073076;28;20032;-53
2023/06/22 08:47:39;;;;;;;18.13;11.32;;;21.00;99.90;;;;;;5090745;28;20032;-51
2023/06/22 08:50:06;;;;;;;19.80;12.88;;;21.00;99.90;;;;;;5090552;28;20488;-54
2023/06/22 08:52:32;;;;;;;18.75;13.13;;;21.00;99.90;;;;;;5090768;28;20032;-54
2023/06/22 08:55:00;;;;;;;19.33;12.20;;;21.10;99.90;;;;;;5090572;28;20461;-54
2023/06/22 08:57:27;;;;;;;19.10;12.57;;;21.10;99.90;;;;;;5072496;28;20039;-54
2023/06/22 08:59:53;;;;;;;18.30;11.93;;;21.10;99.90;;;;;;5090810;28;20028;-53
2023/06/22 09:02:19;;;;;;;18.08;11.65;;;21.20;99.90;;;;;;5090404;28;20028;-51
2023/06/22 09:04:46;;;;;;;15.95;11.30;;;21.30;99.90;;;;;;5090525;28;20063;-52
2023/06/22 09:07:12;;;;;;;18.55;11.00;;;21.40;99.90;;;;;;5090667;28;20392;-54
2023/06/22 09:09:37;;;;;;;17.00;10.88;;;21.40;99.90;;;;;;5090312;28;20023;-54
2023/06/22 09:12:04;;;;;;;19.52;12.43;;;21.50;99.90;;;;;;5090513;28;20476;-51
2023/06/22 09:14:29;;;;;;;18.30;11.13;;;21.60;99.90;;;;;;5090594;28;20029;-52
2023/06/22 09:16:55;;;;;;;21.02;11.38;;;21.80;99.90;;;;;;5090594;28;20020;-54
2023/06/22 09:19:20;;;;;;;19.60;12.93;;;22.00;99.90;;;;;;5090508;28;20473;-52
2023/06/22 09:21:46;;;;;;;19.33;12.18;;;22.10;99.90;;;;;;5090348;28;20028;-49
2023/06/22 09:24:11;;;;;;;20.50;12.93;;;22.30;99.90;;;;;;5090424;28;20039;-53
2023/06/22 09:26:37;;;;;;;18.05;11.23;;;22.50;99.90;;;;;;5090459;28;20032;-52
2023/06/22 09:29:05;;;;;;;17.05;11.27;;;22.70;99.90;;;;;;5091230;28;20029;-53
2023/06/22 09:31:31;;;;;;;17.70;10.95;;;22.90;99.90;;;;;;5094586;28;20032;-54
2023/06/22 09:33:57;;;;;;;15.10;10.27;;;23.00;99.90;;;;;;5094695;28;20435;-55
2023/06/22 09:36:22;;;;;;;15.95;10.57;;;23.20;99.90;;;;;;5094446;28;20042;-54
2023/06/22 09:38:49;;;;;;;15.13;9.60;;;23.30;99.90;;;;;;5094639;28;20134;-51
2023/06/22 09:41:15;;;;;;;15.48;9.57;;;23.50;99.90;;;;;;5094082;28;20030;-52
2023/06/22 09:43:41;;;;;;;15.10;9.43;;;23.60;99.90;;;;;;5094093;28;20039;-53
2023/06/22 09:46:07;;;;;;;15.68;10.52;;;23.60;99.90;;;;;;5094151;28;20028;-50
2023/06/22 09:48:32;;;;;;;14.18;9.02;;;23.60;99.90;;;;;;5094109;28;20039;-53
2023/06/22 09:50:58;;;;;;;15.40;9.82;;;23.60;99.90;;;;;;5094299;28;20107;-51
2023/06/22 09:53:23;;;;;;;15.38;9.63;;;23.70;99.90;;;;;;5093821;28;20020;-53
2023/06/22 09:55:49;;;;;;;16.73;10.10;;;23.70;99.90;;;;;;5093884;28;20020;-55
2023/06/22 09:58:15;;;;;;;14.98;9.90;;;23.90;99.90;;;;;;5093725;28;20069;-55
2023/06/22 10:00:41;;;;;;;14.98;10.07;;;24.00;99.90;;;;;;5093666;28;20107;-54
2023/06/22 10:03:07;;;;;;;16.67;10.57;;;24.20;99.90;;;;;;5093749;28;20043;-52
2023/06/22 10:05:33;;;;;;;18.73;10.60;;;24.30;99.90;;;;;;5093691;28;20085;-51
2023/06/22 10:07:58;;;;;;;15.68;9.95;;;24.40;99.90;;;;;;5093520;28;20032;-53
2023/06/22 10:10:24;;;;;;;14.32;9.13;;;24.50;99.90;;;;;;5093497;28;20119;-52
2023/06/22 10:12:57;;;;;;;17.15;10.70;;;24.60;99.90;;;;;;5093541;28;20047;-53
2023/06/22 10:15:23;;;;;;;15.75;9.90;;;24.80;99.90;;;;;;5093477;28;20059;-53
2023/06/22 10:17:49;;;;;;;13.40;8.93;;;24.80;99.90;;;;;;5093627;28;20043;-52
2023/06/22 10:20:15;;;;;;;15.63;9.60;;;24.90;99.90;;;;;;5093297;28;20040;-53
2023/06/22 10:22:44;;;;;;;13.48;9.32;;;25.10;99.90;;;;;;5092988;28;20078;-51
2023/06/22 10:25:12;;;;;;;11.90;8.35;;;25.20;99.90;;;;;;5093227;28;20089;-50
2023/06/22 10:27:41;;;;;;;10.63;8.13;;;25.30;99.90;;;;;;5093048;28;20093;-53
2023/06/22 10:30:12;;;;;;;15.05;8.40;;;25.50;99.90;;;;;;5093048;28;20019;-54
2023/06/22 10:32:38;;;;;;;13.82;8.85;;;25.50;99.90;;;;;;5093012;28;20040;-50
2023/06/22 10:35:05;;;;;;;12.35;8.82;;;25.50;99.90;;;;;;5074845;28;20150;-54
2023/06/22 10:37:30;;;;;;;14.00;8.70;;;25.50;99.90;;;;;;5093098;28;20032;-55
2023/06/22 10:39:56;;;;;;;12.52;8.10;;;25.50;99.90;;;;;;5092858;28;20031;-51
2023/06/22 10:42:22;;;;;;;11.02;7.68;;;25.40;99.90;;;;;;5091634;28;20128;-54
2023/06/22 10:44:47;;;;;;;12.85;8.82;;;25.40;99.90;;;;;;5092885;28;20553;-53
2023/06/22 10:47:13;;;;;;;11.98;8.13;;;25.30;99.90;;;;;;5093025;28;20531;-53
2023/06/22 10:49:39;;;;;;;10.70;7.18;;;25.20;99.90;;;;;;5092585;28;20024;-51
2023/06/22 10:52:07;;;;;;;13.20;7.85;;;25.10;99.90;;;;;;5074483;28;20028;-51
2023/06/22 10:54:33;;;;;;;19.20;11.00;;;25.10;99.90;;;;;;5092806;28;20122;-54
2023/06/22 10:56:59;;;;;;;12.73;8.27;;;25.00;99.90;;;;;;5074632;28;20085;-53
2023/06/22 10:59:26;;;;;;;14.55;10.07;;;24.90;99.90;;;;;;5092613;28;20021;-51
2023/06/22 11:01:52;;;;;;;11.23;7.88;;;24.80;99.90;;;;;;5092425;28;20024;-52
2023/06/22 11:04:18;;;;;;;11.95;7.55;;;24.70;99.90;;;;;;5092419;28;20361;-53
2023/06/22 11:06:44;;;;;;;9.25;6.28;;;24.60;99.90;;;;;;5092401;28;20035;-51
2023/06/22 11:09:09;;;;;;;10.95;6.68;;;24.50;99.90;;;;;;5092595;28;20039;-52
2023/06/22 11:11:35;;;;;;;13.02;8.13;;;24.50;99.90;;;;;;5074157;28;20028;-53
2023/06/22 11:14:00;;;;;;;12.93;9.23;;;24.40;99.90;;;;;;5092456;28;20028;-55
2023/06/22 11:16:26;;;;;;;12.38;8.85;;;24.40;99.90;;;;;;5092285;28;20035;-54
2023/06/22 11:18:52;;;;;;;13.15;8.38;;;24.30;99.90;;;;;;5092063;28;20039;-51
2023/06/22 11:21:18;;;;;;;11.25;7.22;;;24.30;99.90;;;;;;5091926;28;20020;-52
2023/06/22 11:23:43;;;;;;;14.35;8.77;;;24.20;99.90;;;;;;5092069;28;20115;-54
2023/06/22 11:26:09;;;;;;;11.15;7.80;;;24.10;99.90;;;;;;5092071;28;20119;-53
2023/06/22 11:28:34;;;;;;;14.52;9.85;;;24.00;99.90;;;;;;5091969;28;20111;-56
2023/06/22 11:31:00;;;;;;;13.27;8.30;;;23.90;99.90;;;;;;5092059;28;20366;-55
2023/06/22 11:33:26;;;;;;;18.75;11.93;;;23.80;99.90;;;;;;5091947;28;20387;-49
2023/06/22 11:35:51;;;;;;;16.05;10.73;;;23.60;99.90;;;;;;5073879;28;20463;-54
2023/06/22 11:38:17;;;;;;;13.55;9.27;;;23.40;99.90;;;;;;5091820;28;20043;-55
2023/06/22 11:40:43;;;;;;;16.63;11.60;;;23.30;99.90;;;;;;5091675;28;20024;-55
2023/06/22 11:43:08;;;;;;;17.25;11.98;;;23.20;99.90;;;;;;5091789;28;20430;-51
2023/06/22 11:45:34;;;;;;;17.30;11.55;;;23.10;99.90;;;;;;5091861;28;20028;-54
2023/06/22 11:47:59;;;;;;;17.65;12.48;;;23.10;99.90;;;;;;5091523;28;20028;-52
2023/06/22 11:50:25;;;;;;;21.45;13.85;;;22.80;99.90;;;;;;5091438;28;20060;-54
2023/06/22 11:52:52;;;;;;;22.08;14.52;;;22.50;99.90;;;;;;5073196;28;20038;-53
2023/06/22 11:55:18;;;;;;;23.27;14.88;;;22.10;99.90;;;;;;5091720;28;20032;-54
2023/06/22 11:57:59;;;;;;;23.65;14.93;;;21.90;99.90;;;;;;5091617;28;20035;-54
2023/06/22 12:00:25;;;;;;;25.70;16.23;;;21.80;99.90;;;;;;5091519;28;20662;-53
2023/06/22 12:02:51;;;;;;;22.95;15.20;;;21.60;99.90;;;;;;5091606;28;20085;-53
2023/06/22 12:05:21;;;;;;;25.08;15.77;;;21.50;99.90;;;;;;5091495;28;20119;-52
2023/06/22 12:07:47;;;;;;;27.25;17.05;;;21.40;99.90;;;;;;5091259;28;20062;-49
2023/06/22 12:10:12;;;;;;;28.27;17.25;;;21.30;99.90;;;;;;5091350;28;20295;-48
2023/06/22 12:12:38;;;;;;;25.60;16.58;;;21.20;99.90;;;;;;5091247;28;20035;-51
2023/06/22 12:15:05;;;;;;;26.58;16.65;;;21.20;99.90;;;;;;5091203;28;20035;-49
2023/06/22 12:17:31;;;;;;;28.42;17.88;;;21.20;99.90;;;;;;5091209;28;20028;-51
2023/06/22 12:19:56;;;;;;;27.88;17.35;;;21.20;99.90;;;;;;5091191;28;20537;-50
2023/06/22 12:22:22;;;;;;;28.92;16.77;;;21.20;99.90;;;;;;5090910;28;20027;-50
2023/06/22 12:24:48;;;;;;;32.25;18.48;;;21.20;99.90;;;;;;5091156;28;20039;-49
2023/06/22 12:27:16;;;;;;;28.83;18.00;;;21.30;99.90;;;;;;5073181;28;20071;-49
2023/06/22 12:29:42;;;;;;;27.33;17.77;;;21.30;99.90;;;;;;5091086;28;20031;-51
2023/06/22 12:32:07;;;;;;;29.40;17.83;;;21.30;99.90;;;;;;5091218;28;20024;-49
2023/06/22 12:34:33;;;;;;;29.42;18.35;;;21.40;99.90;;;;;;5091282;28;20112;-52
2023/06/22 12:36:59;;;;;;;29.67;17.58;;;21.60;99.90;;;;;;5091714;28;20078;-50